Time;durP1;ratioP1;P1;durP2;ratioP2;P2;SDS_P1;SDS_P2;PMS_P1;PMS_P2;Temp;Humidity;BMP_temperature;BMP_pressure;BME280_temperature;BME280_humidity;BME280_pressure;Samples;Min_cycle;Max_cycle;Signal;HPM_P1;HPM_P2
2021/10/25 00:00:09;;;;;;;11.43;9.45;;;7.90;99.90;;;;;;4911876;29;20067;-68
2021/10/25 00:02:34;;;;;;;13.35;9.88;;;7.90;99.90;;;;;;4927453;29;20056;-68
2021/10/25 00:05:00;;;;;;;11.55;10.02;;;8.00;99.90;;;;;;4943628;29;20062;-68
2021/10/25 00:07:26;;;;;;;12.85;9.57;;;7.80;99.90;;;;;;4942281;29;20055;-68
2021/10/25 00:09:52;;;;;;;12.85;10.68;;;7.80;99.90;;;;;;4944235;29;20079;-68
2021/10/25 00:12:18;;;;;;;12.95;9.68;;;7.70;99.90;;;;;;4943370;29;20051;-68
2021/10/25 00:14:44;;;;;;;15.13;10.07;;;7.90;99.90;;;;;;4927725;29;20051;-68
2021/10/25 00:17:09;;;;;;;12.02;9.00;;;7.90;99.90;;;;;;4942976;29;20040;-68
2021/10/25 00:19:35;;;;;;;13.43;10.35;;;8.00;99.90;;;;;;4911596;29;20059;-68
2021/10/25 00:22:02;;;;;;;11.65;9.57;;;7.90;99.90;;;;;;4911739;29;20080;-68
2021/10/25 00:24:27;;;;;;;11.30;9.98;;;7.90;99.90;;;;;;4948298;29;20052;-68
2021/10/25 00:26:53;;;;;;;13.52;10.75;;;7.90;99.90;;;;;;4911557;29;20084;-68
2021/10/25 00:29:19;;;;;;;14.68;10.00;;;8.00;99.90;;;;;;4929111;29;20478;-68
2021/10/25 00:31:45;;;;;;;13.63;9.93;;;8.10;99.90;;;;;;4943736;29;20083;-68
2021/10/25 00:34:11;;;;;;;13.55;10.18;;;8.20;99.90;;;;;;4895950;29;20076;-68
2021/10/25 00:36:38;;;;;;;15.40;10.30;;;8.10;99.90;;;;;;4927327;29;20103;-68
2021/10/25 00:39:04;;;;;;;13.90;10.35;;;8.00;99.90;;;;;;4943362;29;20048;-68
2021/10/25 00:41:30;;;;;;;15.13;9.98;;;7.90;99.90;;;;;;4927247;29;20050;-68
2021/10/25 00:43:56;;;;;;;13.98;10.88;;;7.90;99.90;;;;;;4928335;29;20107;-68
2021/10/25 00:46:22;;;;;;;11.52;10.32;;;7.80;99.90;;;;;;4943077;29;20078;-68
2021/10/25 00:48:48;;;;;;;15.98;10.32;;;7.80;99.90;;;;;;4925172;29;20051;-68
2021/10/25 00:51:14;;;;;;;12.00;9.63;;;7.90;99.90;;;;;;4911195;29;20060;-68
2021/10/25 00:53:41;;;;;;;15.38;9.73;;;7.90;99.90;;;;;;4926551;29;20048;-68
2021/10/25 00:56:08;;;;;;;13.45;10.02;;;7.80;99.90;;;;;;4910266;29;20063;-68
2021/10/25 00:58:35;;;;;;;15.25;10.05;;;7.70;99.90;;;;;;4892614;29;20059;-68
2021/10/25 01:01:01;;;;;;;13.68;10.45;;;7.70;99.90;;;;;;4940016;29;20044;-68
2021/10/25 01:03:28;;;;;;;15.52;10.90;;;7.70;99.90;;;;;;4943140;29;20048;-68
2021/10/25 01:05:54;;;;;;;12.35;10.27;;;7.60;99.90;;;;;;4928255;29;20099;-68
2021/10/25 01:08:21;;;;;;;15.65;11.90;;;7.60;99.90;;;;;;4909055;29;20079;-68
2021/10/25 01:10:47;;;;;;;15.57;10.50;;;7.60;99.90;;;;;;4910811;29;20048;-68
2021/10/25 01:13:13;;;;;;;12.05;10.15;;;7.70;99.90;;;;;;4896076;29;20131;-68
2021/10/25 01:15:39;;;;;;;13.30;10.40;;;7.80;99.90;;;;;;4910292;29;20052;-68
2021/10/25 01:18:05;;;;;;;13.65;10.68;;;7.80;99.90;;;;;;4911065;29;20056;-68
2021/10/25 01:20:32;;;;;;;15.18;10.80;;;7.70;99.90;;;;;;4911082;29;20077;-68
2021/10/25 01:23:00;;;;;;;13.48;10.10;;;7.60;99.90;;;;;;4928789;29;20052;-68
2021/10/25 01:25:27;;;;;;;14.90;11.07;;;7.40;99.90;;;;;;4909456;29;20048;-68
2021/10/25 01:27:54;;;;;;;15.43;11.13;;;7.40;99.90;;;;;;4907305;29;20127;-68
2021/10/25 01:30:20;;;;;;;15.32;10.60;;;7.40;99.90;;;;;;4906222;29;20051;-68
2021/10/25 01:32:47;;;;;;;15.63;11.57;;;7.40;99.90;;;;;;4947203;29;20095;-68
2021/10/25 01:35:13;;;;;;;13.93;11.25;;;7.30;99.90;;;;;;4928478;29;20051;-68
2021/10/25 01:37:39;;;;;;;17.52;11.38;;;7.20;99.90;;;;;;4928278;29;20067;-68
2021/10/25 01:40:07;;;;;;;14.70;11.63;;;7.10;99.90;;;;;;4942967;29;20044;-68
2021/10/25 01:42:33;;;;;;;13.55;11.27;;;7.20;99.90;;;;;;4927362;29;20044;-68
2021/10/25 01:44:59;;;;;;;14.02;11.18;;;7.30;99.90;;;;;;4910862;29;20083;-68
2021/10/25 01:47:25;;;;;;;16.48;11.90;;;7.30;99.90;;;;;;4925970;29;20052;-68
2021/10/25 01:49:51;;;;;;;15.27;10.73;;;7.20;99.90;;;;;;4910996;29;20493;-68
2021/10/25 01:52:17;;;;;;;15.48;11.90;;;7.30;99.90;;;;;;4942300;29;20064;-68
2021/10/25 01:54:43;;;;;;;16.73;11.85;;;7.40;99.90;;;;;;4910527;29;20111;-68
2021/10/25 01:57:09;;;;;;;14.95;10.85;;;7.40;99.90;;;;;;4935201;29;20136;-68
2021/10/25 01:59:36;;;;;;;16.10;11.30;;;7.40;99.90;;;;;;4910686;29;20079;-68
2021/10/25 02:02:02;;;;;;;16.08;11.88;;;7.40;99.90;;;;;;4910704;29;20076;-68
2021/10/25 02:04:29;;;;;;;13.30;11.50;;;7.40;99.90;;;;;;4910556;29;20127;-68
2021/10/25 02:06:55;;;;;;;14.43;11.60;;;7.30;99.90;;;;;;4911027;29;20137;-68
2021/10/25 02:09:21;;;;;;;15.65;12.40;;;7.20;99.90;;;;;;4945668;29;20048;-68
2021/10/25 02:11:47;;;;;;;14.43;10.77;;;7.20;99.90;;;;;;4930194;29;20527;-67
2021/10/25 02:14:14;;;;;;;17.48;12.57;;;7.20;99.90;;;;;;4914683;29;20485;-67
2021/10/25 02:16:40;;;;;;;14.15;11.40;;;7.20;99.90;;;;;;4913763;29;20052;-67
2021/10/25 02:19:06;;;;;;;17.08;11.93;;;7.20;99.90;;;;;;4945394;29;20048;-67
2021/10/25 02:21:32;;;;;;;18.55;12.23;;;7.10;99.90;;;;;;4945836;29;20051;-67
2021/10/25 02:23:58;;;;;;;18.17;12.43;;;7.00;99.90;;;;;;4933264;29;20052;-67
2021/10/25 02:26:24;;;;;;;17.05;12.35;;;7.10;99.90;;;;;;4930627;29;20051;-67
2021/10/25 02:28:49;;;;;;;15.68;11.20;;;6.90;99.90;;;;;;4944800;29;20052;-67
2021/10/25 02:31:15;;;;;;;17.25;13.20;;;7.00;99.90;;;;;;4944768;29;20131;-67
2021/10/25 02:33:41;;;;;;;17.17;13.10;;;6.90;99.90;;;;;;4950445;29;20132;-67
2021/10/25 02:36:08;;;;;;;14.68;11.85;;;6.90;99.90;;;;;;4945636;29;20056;-67
2021/10/25 02:38:35;;;;;;;16.25;12.70;;;6.80;99.90;;;;;;4898638;29;20040;-67
2021/10/25 02:41:02;;;;;;;15.80;11.65;;;6.90;99.90;;;;;;4914343;29;20446;-68
2021/10/25 02:43:27;;;;;;;18.52;13.43;;;6.80;99.90;;;;;;4914191;29;20044;-67
2021/10/25 02:45:53;;;;;;;16.85;12.27;;;6.90;99.90;;;;;;4914200;29;20116;-68
2021/10/25 02:48:19;;;;;;;14.60;12.18;;;6.90;99.90;;;;;;4944705;29;20132;-67
2021/10/25 02:50:45;;;;;;;14.80;11.90;;;7.00;99.90;;;;;;4943374;29;20054;-67
2021/10/25 02:53:12;;;;;;;15.82;11.48;;;6.90;99.90;;;;;;4930916;29;20051;-67
2021/10/25 02:55:38;;;;;;;17.60;12.05;;;6.80;99.90;;;;;;4910872;29;20070;-67
2021/10/25 02:58:04;;;;;;;15.77;11.35;;;6.70;99.90;;;;;;4930167;29;20517;-67
2021/10/25 03:00:31;;;;;;;17.13;12.38;;;6.80;99.90;;;;;;4944361;29;20108;-67
2021/10/25 03:02:57;;;;;;;14.98;11.73;;;6.90;99.90;;;;;;4945340;29;20052;-67
2021/10/25 03:05:23;;;;;;;18.95;12.88;;;6.90;99.90;;;;;;4928943;29;20134;-67
2021/10/25 03:07:49;;;;;;;17.20;12.02;;;6.90;99.90;;;;;;4912845;29;20080;-67
2021/10/25 03:10:16;;;;;;;14.88;11.57;;;6.80;99.90;;;;;;4912767;29;20055;-67
2021/10/25 03:12:42;;;;;;;14.18;11.45;;;6.80;99.90;;;;;;4911678;29;20047;-68
2021/10/25 03:15:08;;;;;;;15.60;12.45;;;6.90;99.90;;;;;;4912671;29;20044;-68
2021/10/25 03:17:35;;;;;;;13.80;12.02;;;6.90;99.90;;;;;;4944672;29;20095;-68
2021/10/25 03:20:02;;;;;;;15.55;12.13;;;6.90;99.90;;;;;;4912368;29;20040;-68
2021/10/25 03:22:29;;;;;;;15.38;12.65;;;7.00;99.90;;;;;;4912311;29;20059;-68
2021/10/25 03:24:55;;;;;;;15.35;12.45;;;6.90;99.90;;;;;;4913646;29;20055;-68
2021/10/25 03:27:21;;;;;;;16.65;12.50;;;7.00;99.90;;;;;;4944573;29;20044;-68
2021/10/25 03:29:46;;;;;;;15.90;11.75;;;7.00;99.90;;;;;;4912146;29;20134;-68
2021/10/25 03:32:13;;;;;;;17.80;12.70;;;7.00;99.90;;;;;;4943284;29;20052;-68
2021/10/25 03:34:39;;;;;;;15.77;12.68;;;6.90;99.90;;;;;;4912266;29;20036;-68
2021/10/25 03:37:05;;;;;;;17.20;12.07;;;6.90;99.90;;;;;;4912301;29;20091;-68
2021/10/25 03:39:35;;;;;;;17.83;13.75;;;6.90;99.90;;;;;;4927755;29;20068;-68
2021/10/25 03:42:04;;;;;;;16.65;12.95;;;6.90;99.90;;;;;;4912490;29;20051;-68
2021/10/25 03:44:49;;;;;;;15.45;11.50;;;6.90;99.90;;;;;;4929270;29;20056;-68
2021/10/25 03:47:20;;;;;;;16.20;12.35;;;6.90;99.90;;;;;;4943867;29;20067;-68
2021/10/25 03:49:59;;;;;;;15.98;12.65;;;6.90;99.90;;;;;;4928245;29;20051;-68
2021/10/25 04:27:09;;;;;;;17.42;13.82;;;6.80;99.90;;;;;;4943605;29;20123;-68
2021/10/25 04:29:35;;;;;;;18.65;14.20;;;6.90;99.90;;;;;;4925099;29;20052;-68
2021/10/25 04:35:42;;;;;;;17.38;12.82;;;6.80;99.90;;;;;;4927244;29;20374;-68
2021/10/25 04:38:08;;;;;;;19.73;12.82;;;6.90;99.90;;;;;;4937935;29;20486;-68
2021/10/25 04:40:34;;;;;;;17.73;12.90;;;6.90;99.90;;;;;;4910651;29;20090;-68
2021/10/25 04:43:00;;;;;;;17.40;13.30;;;7.10;99.90;;;;;;4911335;29;20062;-68
2021/10/25 04:45:26;;;;;;;17.45;12.70;;;7.10;99.90;;;;;;4926558;29;20079;-68
2021/10/25 04:47:53;;;;;;;17.70;12.50;;;7.30;99.90;;;;;;4905880;29;20071;-64
2021/10/25 04:50:18;;;;;;;18.38;11.80;;;7.40;99.90;;;;;;4905484;29;20044;-64
2021/10/25 04:52:44;;;;;;;14.43;11.82;;;7.50;99.90;;;;;;4904388;29;20060;-64
2021/10/25 04:55:10;;;;;;;15.68;12.13;;;7.50;99.90;;;;;;4903116;29;20056;-65
2021/10/25 04:57:35;;;;;;;18.73;12.90;;;7.40;99.90;;;;;;4934192;29;20091;-65
2021/10/25 05:00:02;;;;;;;14.32;11.82;;;7.30;99.90;;;;;;4924920;29;20071;-65
2021/10/25 05:02:28;;;;;;;17.10;12.25;;;7.30;99.90;;;;;;4903352;29;20075;-64
2021/10/25 05:04:54;;;;;;;14.18;11.23;;;7.20;99.90;;;;;;4897697;29;20055;-64
2021/10/25 05:07:20;;;;;;;17.40;12.50;;;7.10;99.90;;;;;;4929029;29;20060;-64
2021/10/25 05:09:46;;;;;;;16.02;11.90;;;6.90;99.90;;;;;;4925050;29;20055;-64
2021/10/25 05:12:14;;;;;;;16.63;12.15;;;6.90;99.90;;;;;;4900116;29;20434;-64
2021/10/25 05:14:43;;;;;;;16.42;12.52;;;6.90;99.90;;;;;;4899454;29;20129;-65
2021/10/25 05:17:09;;;;;;;17.52;12.48;;;6.90;99.90;;;;;;4914810;29;20501;-65
2021/10/25 05:19:35;;;;;;;14.93;11.95;;;7.10;99.90;;;;;;4896107;29;20119;-63
2021/10/25 05:22:01;;;;;;;16.52;11.98;;;7.30;99.90;;;;;;4933285;29;20044;-63
2021/10/25 05:24:26;;;;;;;13.50;11.77;;;7.40;99.90;;;;;;4897205;29;20044;-64
2021/10/25 05:26:52;;;;;;;20.75;13.85;;;7.40;99.90;;;;;;4898321;29;20072;-63
2021/10/25 05:29:18;;;;;;;16.75;12.13;;;7.40;99.90;;;;;;4926885;29;20058;-64
2021/10/25 05:31:45;;;;;;;18.58;11.48;;;7.30;99.90;;;;;;4917936;29;20082;-63
2021/10/25 05:34:10;;;;;;;16.17;12.45;;;7.50;99.90;;;;;;4934647;29;20116;-63
2021/10/25 05:36:37;;;;;;;18.55;13.73;;;7.60;99.90;;;;;;4909116;29;20071;-63
2021/10/25 05:39:08;;;;;;;17.27;12.20;;;7.70;99.90;;;;;;4936434;29;20104;-64
2021/10/25 05:41:37;;;;;;;15.80;12.38;;;7.70;99.90;;;;;;4914259;29;20576;-62
2021/10/25 05:44:03;;;;;;;17.05;12.27;;;7.80;99.90;;;;;;4906834;29;20100;-63
2021/10/25 05:46:29;;;;;;;17.77;12.98;;;7.70;99.90;;;;;;4929785;29;20137;-63
2021/10/25 05:48:57;;;;;;;16.88;12.25;;;7.80;99.90;;;;;;4913478;29;20092;-62
2021/10/25 05:51:23;;;;;;;16.35;11.85;;;7.70;99.90;;;;;;4915835;29;20052;-62
2021/10/25 05:53:49;;;;;;;17.48;12.70;;;7.70;99.90;;;;;;4903926;29;20072;-62
2021/10/25 05:56:14;;;;;;;17.23;12.50;;;7.60;99.90;;;;;;4912113;29;20548;-62
2021/10/25 05:58:40;;;;;;;15.50;12.23;;;7.60;99.90;;;;;;4908764;29;20060;-62
2021/10/25 06:01:12;;;;;;;17.23;12.68;;;7.60;99.90;;;;;;4911719;29;20367;-62
2021/10/25 06:03:42;;;;;;;14.38;12.45;;;7.60;99.90;;;;;;4907847;29;20454;-62
2021/10/25 06:06:08;;;;;;;;;;;7.70;99.90;;;;;;4910832;29;20064;-62
2021/10/25 06:08:34;;;;;;;14.77;12.68;;;7.70;99.90;;;;;;4907474;29;19934;-63
2021/10/25 06:11:00;;;;;;;17.73;12.70;;;7.70;99.90;;;;;;4927571;29;20055;-62
2021/10/25 06:13:38;;;;;;;15.95;12.93;;;7.60;99.90;;;;;;4905846;29;20068;-62
2021/10/25 06:16:36;;;;;;;19.55;12.98;;;7.80;99.90;;;;;;4927547;29;20079;-62
2021/10/25 06:18:50;;;;;;;16.45;12.40;;;7.70;99.90;;;;;;4922892;29;20059;-62
2021/10/25 06:21:16;;;;;;;18.00;13.10;;;7.80;99.90;;;;;;4928286;29;20525;-63
2021/10/25 06:23:42;;;;;;;15.52;12.38;;;7.80;99.90;;;;;;4905701;29;20103;-61
2021/10/25 06:26:08;;;;;;;17.77;12.23;;;7.80;99.90;;;;;;4908477;29;20056;-62
2021/10/25 06:28:34;;;;;;;16.75;12.63;;;7.80;99.90;;;;;;4911447;29;20048;-61
2021/10/25 06:31:04;;;;;;;13.68;11.85;;;7.90;99.90;;;;;;4928309;29;20166;-62
2021/10/25 06:33:35;;;;;;;16.38;12.27;;;7.90;99.90;;;;;;4905235;29;20056;-62
2021/10/25 06:36:05;;;;;;;14.60;12.55;;;7.90;99.90;;;;;;4907993;29;20066;-62
2021/10/25 06:38:36;;;;;;;16.80;12.20;;;7.90;99.90;;;;;;4924672;29;20040;-62
2021/10/25 06:41:02;;;;;;;19.48;12.82;;;7.80;99.90;;;;;;4908278;29;20062;-62
2021/10/25 06:43:28;;;;;;;17.02;13.05;;;7.80;99.90;;;;;;4908761;29;20044;-62
2021/10/25 06:45:55;;;;;;;17.52;12.95;;;7.80;99.90;;;;;;4925758;29;20054;-62
2021/10/25 06:48:22;;;;;;;19.38;13.25;;;7.90;99.90;;;;;;4894655;29;20048;-62
2021/10/25 06:50:49;;;;;;;21.15;12.32;;;7.90;99.90;;;;;;4922755;29;20085;-62
2021/10/25 06:53:17;;;;;;;18.85;13.02;;;7.90;99.90;;;;;;4926362;29;20048;-61
2021/10/25 06:55:43;;;;;;;17.33;12.15;;;8.00;99.90;;;;;;4921151;29;20059;-61
2021/10/25 06:58:09;;;;;;;17.85;12.98;;;8.10;99.90;;;;;;4911020;29;20054;-61
2021/10/25 07:00:35;;;;;;;17.13;11.98;;;8.10;99.90;;;;;;4926764;29;20119;-61
2021/10/25 07:03:01;;;;;;;17.15;13.55;;;8.10;99.90;;;;;;4900933;29;20044;-61
2021/10/25 07:05:33;;;;;;;18.15;13.27;;;8.10;99.90;;;;;;4921542;29;20124;-61
2021/10/25 07:07:59;;;;;;;16.15;13.13;;;8.20;99.90;;;;;;4911690;29;20250;-61
2021/10/25 07:10:26;;;;;;;18.92;13.52;;;8.30;99.90;;;;;;4910787;29;20150;-61
2021/10/25 07:12:52;;;;;;;18.95;13.68;;;8.30;99.90;;;;;;4921545;29;20079;-61
2021/10/25 07:15:19;;;;;;;15.73;12.40;;;8.40;99.90;;;;;;4900971;29;20074;-61
2021/10/25 07:17:53;;;;;;;17.02;12.35;;;8.40;99.90;;;;;;4932694;29;20083;-61
2021/10/25 08:11:48;;;;;;;14.20;11.13;;;9.60;99.90;;;;;;4924265;29;20051;-62
2021/10/25 08:14:15;;;;;;;12.57;11.30;;;9.60;99.90;;;;;;4920513;29;20489;-62
2021/10/25 08:16:43;;;;;;;16.13;11.13;;;9.50;99.90;;;;;;4925704;29;20079;-61
2021/10/25 08:19:23;;;;;;;16.50;11.75;;;9.60;99.90;;;;;;4906193;29;20052;-63
2021/10/25 08:22:04;;;;;;;13.35;10.75;;;9.50;99.90;;;;;;4922383;29;20052;-62
2021/10/25 08:24:34;;;;;;;18.65;12.18;;;9.60;99.90;;;;;;4936684;29;20047;-61
2021/10/25 08:27:01;;;;;;;;;;;9.60;99.90;;;;;;4928340;29;20052;-61
2021/10/25 08:29:27;;;;;;;15.02;10.85;;;9.60;99.90;;;;;;4903471;29;19962;-62
2021/10/25 08:31:59;;;;;;;16.55;11.50;;;9.70;99.90;;;;;;4908685;29;20539;-62
2021/10/25 08:42:37;;;;;;;19.35;13.38;;;9.80;99.90;;;;;;4811845;29;20052;-61
2021/10/25 08:45:13;;;;;;;17.50;12.37;;;9.90;99.90;;;;;;4815833;29;20058;-61
2021/10/25 08:47:44;;;;;;;18.00;12.70;;;9.80;99.90;;;;;;4804986;29;20050;-62
2021/10/25 08:50:19;;;;;;;18.42;12.63;;;9.90;99.90;;;;;;4831147;29;20112;-62
2021/10/25 08:52:45;;;;;;;17.48;12.00;;;9.90;99.90;;;;;;4822065;29;20106;-61
2021/10/25 08:55:13;;;;;;;14.65;12.48;;;9.90;99.90;;;;;;4803542;29;20046;-62
2021/10/25 08:57:40;;;;;;;16.42;12.65;;;10.00;99.90;;;;;;4837827;29;20054;-61
2021/10/25 09:00:08;;;;;;;14.55;12.07;;;9.90;99.90;;;;;;4832474;29;20075;-62
2021/10/25 09:02:35;;;;;;;20.30;13.02;;;9.90;99.90;;;;;;4842049;29;20054;-61
2021/10/25 09:05:07;;;;;;;15.07;11.63;;;10.00;99.90;;;;;;4826388;29;20550;-61
2021/10/25 09:08:04;;;;;;;18.77;12.93;;;10.00;99.90;;;;;;4800632;29;20470;-61
2021/10/25 09:10:36;;;;;;;13.40;12.00;;;10.00;99.90;;;;;;4834895;29;20367;-61
2021/10/25 09:13:07;;;;;;;18.08;12.32;;;10.20;99.90;;;;;;4821952;29;20062;-61
2021/10/25 09:15:39;;;;;;;17.20;11.85;;;10.00;99.90;;;;;;4818243;29;20099;-62
2021/10/25 09:18:17;;;;;;;18.23;12.88;;;10.10;99.90;;;;;;4861494;29;20066;-62
2021/10/25 09:20:51;;;;;;;18.40;11.90;;;10.10;99.90;;;;;;4899178;29;20067;-61
2021/10/25 09:23:20;;;;;;;15.82;11.68;;;10.10;99.90;;;;;;4913130;29;20520;-62
2021/10/25 09:25:52;;;;;;;17.58;11.98;;;10.20;99.90;;;;;;4914999;29;20047;-61
2021/10/25 09:28:29;;;;;;;18.85;12.85;;;10.10;99.90;;;;;;4928601;29;20053;-61
2021/10/25 09:31:00;;;;;;;13.82;11.18;;;10.10;99.90;;;;;;4915180;29;20328;-61
2021/10/25 09:33:39;;;;;;;13.93;11.50;;;10.10;99.90;;;;;;4912057;29;20064;-62
2021/10/25 09:36:09;;;;;;;16.05;12.02;;;10.10;99.90;;;;;;4916452;29;20099;-61
2021/10/25 09:49:28;;;;;;;17.90;11.02;;;10.40;99.90;;;;;;4841565;29;20061;-62
2021/10/25 09:51:55;;;;;;;16.30;10.23;;;10.40;99.90;;;;;;4839053;29;20050;-62
2021/10/25 09:54:22;;;;;;;13.77;10.98;;;10.50;99.90;;;;;;4849181;29;20066;-62
2021/10/25 09:59:53;;;;;;;12.15;10.02;;;10.50;99.90;;;;;;4824451;29;20054;-61
2021/10/25 10:02:21;;;;;;;12.68;10.30;;;10.40;99.90;;;;;;4829619;29;20094;-61
2021/10/25 10:04:58;;;;;;;13.68;9.70;;;10.50;99.90;;;;;;4841148;29;20046;-62
2021/10/25 10:07:25;;;;;;;14.85;10.93;;;10.60;99.90;;;;;;4844895;29;20057;-61
2021/10/25 10:09:52;;;;;;;13.30;9.63;;;10.50;99.90;;;;;;4855028;29;20042;-62
2021/10/25 10:12:20;;;;;;;12.15;9.35;;;10.60;99.90;;;;;;4832580;29;20046;-62
2021/10/25 10:14:50;;;;;;;13.30;9.98;;;10.60;99.90;;;;;;4824806;29;20203;-62
2021/10/25 10:17:27;;;;;;;13.70;10.60;;;10.70;99.90;;;;;;4830318;29;20105;-62
2021/10/25 10:19:55;;;;;;;12.82;10.82;;;10.50;99.90;;;;;;4831447;29;20057;-62
2021/10/25 10:22:22;;;;;;;12.75;10.10;;;10.50;99.90;;;;;;4916364;29;20047;-62
2021/10/25 10:24:50;;;;;;;13.50;10.75;;;10.60;99.90;;;;;;4897824;29;20071;-62
2021/10/25 10:27:22;;;;;;;13.60;10.68;;;10.50;99.90;;;;;;4901982;29;20143;-62
2021/10/25 10:29:59;;;;;;;13.15;10.43;;;10.50;99.90;;;;;;4896251;29;20057;-62
2021/10/25 10:32:32;;;;;;;16.45;11.98;;;10.50;99.90;;;;;;4919220;29;20083;-62
2021/10/25 10:35:04;;;;;;;17.58;11.70;;;10.50;99.90;;;;;;4900257;29;20286;-62
2021/10/25 10:37:32;;;;;;;20.42;11.77;;;10.50;99.90;;;;;;4902153;29;20051;-62
2021/10/25 10:40:13;;;;;;;13.20;11.20;;;10.40;99.90;;;;;;4931695;29;20497;-63
2021/10/25 10:42:43;;;;;;;16.00;11.13;;;10.40;99.90;;;;;;4930178;29;20079;-65
2021/10/25 10:45:10;;;;;;;16.13;10.75;;;10.50;99.90;;;;;;4905099;29;20079;-63
2021/10/25 10:47:51;;;;;;;14.38;11.93;;;10.50;99.90;;;;;;4919059;29;20060;-64
2021/10/25 10:50:26;;;;;;;14.82;12.70;;;10.50;99.90;;;;;;4926457;29;20063;-64
2021/10/25 10:53:09;;;;;;;14.60;11.40;;;10.50;99.90;;;;;;4911995;29;20052;-64
2021/10/25 10:55:42;;;;;;;17.20;12.65;;;10.50;99.90;;;;;;4903865;29;20036;-64
2021/10/25 10:58:39;;;;;;;15.32;13.05;;;10.60;99.90;;;;;;4881445;29;20044;-64
2021/10/25 11:01:04;;;;;;;16.25;12.18;;;10.60;99.90;;;;;;4928001;29;20479;-64
2021/10/25 11:03:31;;;;;;;14.30;12.77;;;10.70;99.90;;;;;;4917558;29;20047;-64
2021/10/25 11:06:07;;;;;;;13.75;11.88;;;10.70;99.90;;;;;;4911357;29;20039;-64
2021/10/25 11:08:39;;;;;;;16.40;13.43;;;10.90;99.90;;;;;;4917631;29;20048;-64
2021/10/25 11:11:06;;;;;;;18.02;13.23;;;10.70;99.90;;;;;;4916473;29;20075;-64
2021/10/25 11:13:58;;;;;;;19.40;14.55;;;10.60;99.90;;;;;;4917875;29;20485;-64
2021/10/25 11:16:35;;;;;;;17.20;13.57;;;10.40;99.90;;;;;;4928245;29;20062;-64
2021/10/25 11:19:02;;;;;;;17.67;14.23;;;10.40;99.90;;;;;;4901299;29;20619;-64
2021/10/25 11:21:36;;;;;;;22.88;15.65;;;10.40;99.90;;;;;;4903975;29;20048;-64
2021/10/25 11:24:06;;;;;;;21.23;15.15;;;10.40;99.90;;;;;;4927090;29;20111;-64
2021/10/25 11:26:43;;;;;;;19.40;13.43;;;10.40;99.90;;;;;;4903812;29;20087;-64
2021/10/25 11:29:24;;;;;;;21.55;16.48;;;10.50;99.90;;;;;;4915478;29;20056;-64
2021/10/25 11:31:52;;;;;;;19.73;16.38;;;10.60;99.90;;;;;;4901252;29;20059;-65
2021/10/25 11:34:33;;;;;;;24.45;15.52;;;10.50;99.90;;;;;;4896827;29;20063;-65
2021/10/25 11:37:12;;;;;;;20.92;15.95;;;10.60;99.90;;;;;;4906157;29;20061;-64
2021/10/25 11:39:45;;;;;;;21.70;16.03;;;10.60;99.90;;;;;;4897761;29;20063;-64
2021/10/25 11:42:29;;;;;;;24.80;16.17;;;10.50;99.90;;;;;;4901220;29;20051;-64
2021/10/25 11:45:02;;;;;;;21.25;14.27;;;10.40;99.90;;;;;;4907413;29;20052;-64
2021/10/25 11:47:30;;;;;;;21.48;15.00;;;10.50;99.90;;;;;;4914041;29;20052;-64
2021/10/25 11:50:20;;;;;;;20.77;15.27;;;10.60;99.90;;;;;;4907036;29;20048;-64
2021/10/25 11:52:49;;;;;;;18.60;14.55;;;10.60;99.90;;;;;;4917723;29;20044;-64
2021/10/25 11:55:17;;;;;;;20.33;14.52;;;10.70;99.90;;;;;;4903603;29;20069;-64
2021/10/25 11:57:55;;;;;;;17.10;14.60;;;10.80;99.90;;;;;;4908125;29;20499;-64
2021/10/25 12:00:27;;;;;;;20.13;14.52;;;10.80;99.90;;;;;;4904453;29;20055;-64
2021/10/25 12:03:03;;;;;;;17.38;14.23;;;10.90;99.90;;;;;;4911526;29;20130;-64
2021/10/25 12:05:29;;;;;;;15.90;13.88;;;10.90;99.90;;;;;;4889275;29;20055;-64
2021/10/25 12:07:57;;;;;;;15.38;12.98;;;11.00;99.90;;;;;;4922588;29;20063;-65
2021/10/25 12:10:25;;;;;;;17.80;12.38;;;10.90;99.90;;;;;;4935669;29;20055;-64
2021/10/25 12:12:56;;;;;;;19.40;13.00;;;11.30;99.90;;;;;;4909751;29;20052;-64
2021/10/25 12:15:25;;;;;;;17.35;12.75;;;11.10;99.90;;;;;;4906639;29;20497;-64
2021/10/25 12:17:59;;;;;;;20.48;12.85;;;11.20;99.90;;;;;;4910178;29;20067;-64
2021/10/25 12:20:27;;;;;;;16.77;12.68;;;11.20;99.90;;;;;;4903650;29;20052;-64
2021/10/25 12:23:11;;;;;;;15.55;12.85;;;11.20;99.90;;;;;;4925144;29;20118;-64
2021/10/25 12:25:37;;;;;;;16.98;13.05;;;11.20;99.90;;;;;;4903604;29;20047;-64
2021/10/25 12:28:20;;;;;;;17.45;12.80;;;11.10;99.90;;;;;;4909764;29;20396;-64
2021/10/25 12:30:51;;;;;;;15.40;12.80;;;11.10;99.90;;;;;;4903463;29;20080;-64
2021/10/25 12:33:23;;;;;;;20.00;12.68;;;11.10;99.90;;;;;;4908332;29;20052;-64
2021/10/25 12:35:50;;;;;;;16.73;13.20;;;11.20;99.90;;;;;;4898268;29;20565;-64
2021/10/25 12:38:20;;;;;;;17.83;12.90;;;11.20;99.90;;;;;;4909088;29;20055;-64
2021/10/25 12:40:48;;;;;;;20.10;13.88;;;11.10;99.90;;;;;;4903168;29;20048;-64
2021/10/25 12:43:16;;;;;;;18.38;13.00;;;11.20;99.90;;;;;;4912002;29;20071;-64
2021/10/25 12:45:55;;;;;;;20.42;13.20;;;11.10;99.90;;;;;;4917696;29;20059;-64
2021/10/25 12:48:21;;;;;;;17.17;12.77;;;11.20;99.90;;;;;;4917079;29;20055;-64
2021/10/25 12:50:50;;;;;;;14.93;12.52;;;11.20;99.90;;;;;;4922448;29;20048;-64
2021/10/25 12:53:19;;;;;;;16.92;12.45;;;11.30;99.90;;;;;;4911552;29;20058;-64
2021/10/25 12:55:55;;;;;;;17.83;13.27;;;11.20;99.90;;;;;;4903730;29;20076;-64
2021/10/25 12:58:22;;;;;;;16.65;13.63;;;11.20;99.90;;;;;;4909289;29;20059;-64
2021/10/25 13:00:48;;;;;;;17.10;13.30;;;11.30;99.90;;;;;;4905379;29;20124;-64
2021/10/25 13:03:15;;;;;;;16.40;13.18;;;11.40;99.90;;;;;;4911128;29;20075;-64
2021/10/25 13:05:46;;;;;;;16.80;13.55;;;11.60;99.90;;;;;;4934143;29;20060;-64
2021/10/25 13:08:11;;;;;;;18.17;13.27;;;11.80;99.90;;;;;;4910796;29;20536;-64
2021/10/25 13:10:39;;;;;;;17.00;13.18;;;11.90;99.90;;;;;;4934938;29;20060;-64
2021/10/25 13:13:08;;;;;;;18.27;12.70;;;11.90;99.90;;;;;;4907808;29;20079;-64
2021/10/25 13:15:36;;;;;;;17.23;11.65;;;11.90;99.90;;;;;;4903499;29;20079;-64
2021/10/25 13:18:06;;;;;;;17.55;12.45;;;11.90;99.90;;;;;;4909773;29;20079;-64
2021/10/25 13:20:35;;;;;;;15.50;11.93;;;12.00;99.90;;;;;;4903279;29;20040;-65
2021/10/25 13:23:03;;;;;;;15.98;11.73;;;12.10;99.90;;;;;;4908119;29;20163;-64
2021/10/25 13:25:29;;;;;;;15.80;11.65;;;12.00;99.90;;;;;;4902967;29;20044;-64
2021/10/25 13:27:57;;;;;;;17.70;12.35;;;12.00;99.90;;;;;;4925645;29;20070;-64
2021/10/25 13:30:24;;;;;;;17.08;12.55;;;11.90;99.90;;;;;;4906717;29;20428;-64
2021/10/25 13:32:50;;;;;;;17.80;13.27;;;11.80;99.90;;;;;;4905255;29;20060;-64
2021/10/25 13:35:16;;;;;;;19.83;12.13;;;11.90;99.90;;;;;;4931589;29;20052;-64
2021/10/25 13:37:45;;;;;;;15.23;12.15;;;12.10;99.90;;;;;;4900393;29;20640;-64
2021/10/25 13:40:12;;;;;;;15.68;12.38;;;12.30;99.90;;;;;;4906025;29;20052;-64
2021/10/25 13:42:39;;;;;;;17.02;12.43;;;12.30;99.90;;;;;;4906244;29;20073;-65
2021/10/25 13:45:06;;;;;;;13.82;11.90;;;12.50;99.90;;;;;;4910777;29;20083;-64
2021/10/25 13:47:32;;;;;;;16.05;11.85;;;12.50;99.90;;;;;;4908600;29;20274;-65
2021/10/25 13:49:58;;;;;;;15.65;10.98;;;12.70;99.90;;;;;;4935138;29;20056;-64
2021/10/25 13:52:24;;;;;;;13.77;10.68;;;12.50;99.90;;;;;;4902907;29;20150;-64
2021/10/25 13:54:50;;;;;;;13.32;10.52;;;12.30;99.90;;;;;;4909453;29;20059;-64
2021/10/25 13:57:21;;;;;;;16.20;11.27;;;12.30;99.90;;;;;;4900399;29;20552;-64
2021/10/25 13:59:48;;;;;;;14.65;12.02;;;12.40;99.90;;;;;;4915043;29;20116;-64
2021/10/25 14:02:15;;;;;;;14.55;10.93;;;12.20;99.90;;;;;;4924463;29;20157;-64
2021/10/25 14:04:49;;;;;;;16.30;12.27;;;12.20;99.90;;;;;;4899107;29;20082;-65
2021/10/25 14:07:21;;;;;;;13.38;11.30;;;12.10;99.90;;;;;;4903788;29;20261;-64
2021/10/25 14:09:54;;;;;;;16.98;11.57;;;12.20;99.90;;;;;;4910434;29;20553;-64
2021/10/25 14:12:24;;;;;;;15.10;11.93;;;12.30;99.90;;;;;;4899783;29;20308;-63
2021/10/25 14:14:51;;;;;;;15.27;10.82;;;12.20;99.90;;;;;;4892355;29;20076;-63
2021/10/25 14:17:18;;;;;;;16.38;11.38;;;12.20;99.90;;;;;;4903448;29;20078;-63
2021/10/25 14:19:43;;;;;;;16.35;11.93;;;12.10;99.90;;;;;;4910774;29;20120;-63
2021/10/25 14:22:09;;;;;;;16.10;11.50;;;12.00;99.90;;;;;;4901692;29;20083;-63
2021/10/25 14:24:35;;;;;;;13.05;11.10;;;12.00;99.90;;;;;;4912011;29;20052;-63
2021/10/25 14:27:01;;;;;;;12.93;11.32;;;12.00;99.90;;;;;;4901655;29;20075;-63
2021/10/25 14:29:26;;;;;;;13.82;10.93;;;11.90;99.90;;;;;;4916214;29;20049;-64
2021/10/25 14:31:52;;;;;;;13.75;11.38;;;12.00;99.90;;;;;;4900255;29;20099;-64